createdAt,value
2017-12-01T00:00:20.939Z,0.00
2017-12-01T00:01:20.952Z,0.00
2017-12-01T00:02:20.971Z,0.00
2017-12-01T00:03:20.981Z,0.00
2017-12-01T00:04:20.990Z,0.00
2017-12-01T00:05:21.006Z,0.00
2017-12-01T00:06:21.016Z,0.00
2017-12-01T00:07:21.027Z,0.00
2017-12-01T00:08:21.045Z,0.00
2017-12-01T00:09:21.053Z,0.00
2017-12-01T00:10:21.081Z,0.00
2017-12-01T00:11:21.080Z,0.00
2017-12-01T00:12:21.094Z,0.00
2017-12-01T00:13:21.112Z,0.00
2017-12-01T00:14:21.117Z,0.00
2017-12-01T00:15:21.130Z,0.00
2017-12-01T00:16:21.143Z,0.00
2017-12-01T00:17:21.156Z,0.00
2017-12-01T00:18:21.171Z,0.00
2017-12-01T00:19:21.184Z,0.00
2017-12-01T00:20:21.194Z,0.00
2017-12-01T00:21:21.210Z,0.00
2017-12-01T00:22:21.221Z,0.00
2017-12-01T00:23:21.235Z,0.00
2017-12-01T00:24:21.245Z,0.00
2017-12-01T00:25:21.261Z,0.00
2017-12-01T00:26:21.273Z,0.00
2017-12-01T00:27:21.284Z,0.00
2017-12-01T00:28:21.297Z,0.00
2017-12-01T00:29:21.310Z,0.00
2017-12-01T00:30:21.323Z,0.00
2017-12-01T00:31:21.354Z,0.00
2017-12-01T00:32:21.350Z,0.00
2017-12-01T00:33:21.365Z,0.00
2017-12-01T00:34:21.376Z,0.00
2017-12-01T00:35:21.386Z,0.00
2017-12-01T00:36:21.402Z,0.00
2017-12-01T00:37:21.415Z,0.00
2017-12-01T00:38:21.428Z,0.00
2017-12-01T00:39:21.440Z,0.00
2017-12-01T00:40:21.456Z,0.00
2017-12-01T00:41:21.466Z,0.00
2017-12-01T00:42:21.478Z,0.00
2017-12-01T00:43:21.491Z,0.00
2017-12-01T00:44:21.505Z,0.00
2017-12-01T00:45:21.520Z,0.00
2017-12-01T00:46:21.530Z,0.00
2017-12-01T00:47:21.544Z,0.00
2017-12-01T00:48:21.559Z,0.00
2017-12-01T00:49:21.569Z,0.00
2017-12-01T00:50:21.583Z,0.00
2017-12-01T00:51:21.593Z,0.00
2017-12-01T00:52:21.608Z,0.00
2017-12-01T00:53:21.622Z,0.00
2017-12-01T00:54:21.639Z,0.00
2017-12-01T00:55:21.650Z,0.00
2017-12-01T00:56:21.658Z,0.00
2017-12-01T00:57:21.677Z,0.00
2017-12-01T00:58:21.701Z,0.00
2017-12-01T00:59:21.701Z,0.00
2017-12-01T01:00:21.710Z,0.00
2017-12-01T01:01:21.723Z,0.00
2017-12-01T01:02:21.739Z,0.00
2017-12-01T01:03:21.749Z,0.00
2017-12-01T01:04:21.765Z,0.00
2017-12-01T01:05:21.786Z,0.00
2017-12-01T01:06:21.793Z,0.00
2017-12-01T01:07:21.808Z,0.00
2017-12-01T01:08:21.815Z,0.00
2017-12-01T01:09:21.829Z,0.00
2017-12-01T01:10:21.840Z,0.00
2017-12-01T01:11:21.854Z,0.00
2017-12-01T01:12:21.869Z,0.00
2017-12-01T01:13:21.882Z,0.00
2017-12-01T01:14:21.894Z,0.00
2017-12-01T01:15:21.907Z,0.00
2017-12-01T01:16:21.919Z,0.00
2017-12-01T01:17:21.934Z,0.00
2017-12-01T01:18:21.947Z,0.00
2017-12-01T01:19:21.959Z,0.00
2017-12-01T01:20:21.968Z,0.00
2017-12-01T01:21:21.984Z,0.00
2017-12-01T01:22:21.999Z,0.00
2017-12-01T01:23:22.010Z,0.00
2017-12-01T01:24:22.023Z,0.00
2017-12-01T01:25:22.035Z,0.00
2017-12-01T01:26:22.048Z,0.00
2017-12-01T01:27:22.060Z,0.00
2017-12-01T01:28:22.074Z,0.00
2017-12-01T01:29:22.087Z,0.00
2017-12-01T01:30:22.108Z,0.00
2017-12-01T01:31:22.113Z,0.00
2017-12-01T01:32:22.125Z,0.00
2017-12-01T01:33:22.275Z,0.00
2017-12-01T01:34:22.151Z,0.00
2017-12-01T01:35:22.168Z,0.00
2017-12-01T01:36:22.179Z,0.00
2017-12-01T01:37:22.189Z,0.00
2017-12-01T01:38:22.205Z,0.00
2017-12-01T01:39:22.215Z,0.00
2017-12-01T01:40:22.229Z,0.00
2017-12-01T01:41:22.243Z,0.00
2017-12-01T01:42:22.258Z,0.00
2017-12-01T01:43:22.266Z,0.00
2017-12-01T01:44:22.326Z,0.00
2017-12-01T01:45:22.295Z,0.00
2017-12-01T01:46:22.308Z,0.00
2017-12-01T01:47:22.323Z,0.00
2017-12-01T01:48:22.331Z,0.00
2017-12-01T01:49:22.345Z,0.00
2017-12-01T01:50:22.359Z,0.00
2017-12-01T01:51:22.375Z,0.00
2017-12-01T01:52:22.385Z,0.00
2017-12-01T01:53:22.409Z,0.00
2017-12-01T01:54:22.413Z,0.00
2017-12-01T01:55:22.423Z,0.00
2017-12-01T01:56:22.435Z,0.00
2017-12-01T01:57:22.450Z,0.00
2017-12-01T01:58:22.465Z,0.00
2017-12-01T01:59:22.478Z,0.00
2017-12-01T02:00:22.511Z,0.00
2017-12-01T02:01:22.501Z,0.00
2017-12-01T02:02:22.514Z,0.00
2017-12-01T02:03:22.525Z,0.00
2017-12-01T02:04:22.539Z,0.00
2017-12-01T02:05:22.555Z,0.00
2017-12-01T02:06:22.576Z,0.00
2017-12-01T02:07:22.581Z,0.00
2017-12-01T02:08:22.593Z,0.00
2017-12-01T02:09:22.604Z,0.00
2017-12-01T02:10:22.619Z,0.00
2017-12-01T02:11:22.636Z,0.00
2017-12-01T02:12:22.648Z,0.00
2017-12-01T02:13:22.659Z,0.00
2017-12-01T02:14:22.671Z,0.00
2017-12-01T02:15:22.682Z,0.00
2017-12-01T02:16:22.700Z,0.00
2017-12-01T02:17:22.709Z,0.00
2017-12-01T02:18:22.721Z,0.00
2017-12-01T02:19:22.733Z,0.00
2017-12-01T02:20:22.748Z,0.00
2017-12-01T02:21:22.762Z,0.00
2017-12-01T02:22:22.787Z,0.00
2017-12-01T02:23:22.784Z,0.00
2017-12-01T02:24:22.798Z,0.00
2017-12-01T02:25:22.813Z,0.00
2017-12-01T02:26:22.826Z,0.00
2017-12-01T02:27:22.839Z,0.00
2017-12-01T02:28:22.848Z,0.00
2017-12-01T02:29:22.864Z,0.00
2017-12-01T02:30:22.877Z,0.00
2017-12-01T02:31:22.889Z,0.00
2017-12-01T02:32:22.901Z,0.00
2017-12-01T02:33:22.924Z,0.00
2017-12-01T02:34:22.930Z,0.00
2017-12-01T02:35:22.938Z,0.00
2017-12-01T02:36:22.956Z,0.00
2017-12-01T02:37:22.967Z,0.00
2017-12-01T02:38:22.981Z,0.00
2017-12-01T02:39:22.989Z,0.00
2017-12-01T02:40:23.002Z,0.00
2017-12-01T02:41:23.028Z,0.00
2017-12-01T02:42:23.039Z,0.00
2017-12-01T02:43:23.058Z,0.00
2017-12-01T02:44:23.059Z,0.00
2017-12-01T02:45:23.076Z,0.00
2017-12-01T02:46:23.092Z,0.00
2017-12-01T02:47:23.100Z,0.00
2017-12-01T02:48:23.126Z,0.00
2017-12-01T02:49:23.118Z,0.00
2017-12-01T02:50:23.130Z,0.00
2017-12-01T02:51:23.145Z,0.00
2017-12-01T02:52:23.156Z,0.00
2017-12-01T02:53:23.169Z,0.00
2017-12-01T02:54:23.181Z,0.00
2017-12-01T02:55:23.194Z,0.00
2017-12-01T02:56:23.214Z,0.00
2017-12-01T02:57:23.221Z,0.00
2017-12-01T02:58:23.232Z,0.00
2017-12-01T02:59:23.250Z,0.00
2017-12-01T03:00:23.257Z,0.00
2017-12-01T03:01:23.270Z,0.00
2017-12-01T03:02:23.284Z,0.00
2017-12-01T03:03:23.295Z,0.00
2017-12-01T03:04:23.320Z,0.00
2017-12-01T03:05:23.324Z,0.00
2017-12-01T03:06:23.334Z,0.00
2017-12-01T03:07:23.352Z,0.00
2017-12-01T03:08:23.358Z,0.00
2017-12-01T03:09:23.386Z,0.00
2017-12-01T03:10:23.386Z,0.00
2017-12-01T03:11:23.398Z,0.00
2017-12-01T03:12:23.412Z,0.00
2017-12-01T03:13:23.421Z,0.00
2017-12-01T03:14:23.435Z,0.00
2017-12-01T03:15:23.449Z,0.00
2017-12-01T03:16:23.459Z,0.00
2017-12-01T03:17:23.474Z,0.00
2017-12-01T03:18:23.486Z,0.00
2017-12-01T03:19:23.498Z,0.00
2017-12-01T03:20:23.511Z,0.00
2017-12-01T03:21:23.527Z,0.00
2017-12-01T03:22:23.539Z,0.00
2017-12-01T03:23:23.550Z,0.00
2017-12-01T03:24:23.568Z,0.00
2017-12-01T03:25:23.576Z,0.00
2017-12-01T03:26:23.589Z,0.00
2017-12-01T03:27:23.600Z,0.00
2017-12-01T03:28:23.617Z,0.00
2017-12-01T03:29:23.629Z,0.00
2017-12-01T03:30:23.641Z,0.00
2017-12-01T03:31:23.653Z,0.00
2017-12-01T03:32:23.666Z,0.00
2017-12-01T03:33:23.691Z,0.00
2017-12-01T03:34:23.691Z,0.00
2017-12-01T03:35:23.702Z,0.00
2017-12-01T03:36:23.716Z,0.00
2017-12-01T03:37:23.729Z,0.00
2017-12-01T03:38:23.742Z,0.00
2017-12-01T03:39:23.762Z,0.00
2017-12-01T03:40:23.768Z,0.00
2017-12-01T03:41:23.782Z,0.00
2017-12-01T03:42:23.795Z,0.00
2017-12-01T03:43:23.809Z,0.00
2017-12-01T03:44:23.823Z,0.00
2017-12-01T03:45:23.834Z,0.00
2017-12-01T03:46:23.846Z,0.00
2017-12-01T03:47:23.859Z,0.00
2017-12-01T03:48:23.872Z,0.00
2017-12-01T03:49:23.884Z,0.00
2017-12-01T03:50:23.898Z,0.00
2017-12-01T03:51:23.909Z,0.00
2017-12-01T03:52:23.924Z,0.00
2017-12-01T03:53:23.939Z,0.00
2017-12-01T03:54:23.951Z,0.00
2017-12-01T03:55:23.963Z,0.00
2017-12-01T03:56:23.975Z,0.00
2017-12-01T03:57:23.993Z,0.00
2017-12-01T03:58:24.001Z,0.00
2017-12-01T03:59:24.051Z,0.00
2017-12-01T04:00:24.032Z,0.00
2017-12-01T04:01:24.044Z,0.00
2017-12-01T04:02:24.061Z,0.00
2017-12-01T04:03:24.068Z,0.00
2017-12-01T04:04:24.081Z,0.00
2017-12-01T04:05:24.092Z,0.00
2017-12-01T04:06:24.108Z,0.00
2017-12-01T04:07:24.118Z,0.00
2017-12-01T04:08:24.133Z,0.00
2017-12-01T04:09:24.148Z,0.00
2017-12-01T04:10:24.162Z,0.00
2017-12-01T04:11:24.171Z,0.00
2017-12-01T04:12:24.190Z,0.00
2017-12-01T04:13:24.200Z,0.00
2017-12-01T04:14:24.211Z,0.00
2017-12-01T04:15:24.223Z,0.00
2017-12-01T04:16:24.240Z,0.00
2017-12-01T04:17:24.252Z,0.00
2017-12-01T04:18:24.276Z,0.00
2017-12-01T04:19:24.275Z,0.00
2017-12-01T04:20:24.291Z,0.00
2017-12-01T04:21:24.303Z,0.00
2017-12-01T04:22:24.315Z,0.00
2017-12-01T04:23:24.328Z,0.00
2017-12-01T04:24:24.343Z,0.00
2017-12-01T04:25:24.353Z,0.00
2017-12-01T04:26:24.366Z,0.00
2017-12-01T04:27:24.381Z,0.00
2017-12-01T04:28:24.399Z,0.00
2017-12-01T04:29:24.404Z,0.00
2017-12-01T04:30:24.420Z,0.00
2017-12-01T04:31:24.431Z,0.00
2017-12-01T04:32:24.449Z,0.00
2017-12-01T04:33:24.462Z,0.00
2017-12-01T04:34:24.472Z,0.00
2017-12-01T04:35:24.486Z,0.00
2017-12-01T04:36:24.498Z,0.00
2017-12-01T04:37:24.515Z,0.00
2017-12-01T04:38:24.531Z,0.00
2017-12-01T04:39:24.539Z,0.00
2017-12-01T04:40:24.548Z,0.00
2017-12-01T04:41:24.561Z,0.00
2017-12-01T04:42:24.581Z,0.00
2017-12-01T04:43:24.587Z,0.00
2017-12-01T04:44:24.608Z,0.00
2017-12-01T04:45:24.615Z,0.00
2017-12-01T04:46:24.630Z,0.00
2017-12-01T04:47:24.640Z,0.00
2017-12-01T04:48:24.657Z,0.00
2017-12-01T04:49:24.666Z,0.00
2017-12-01T04:50:24.682Z,0.00
2017-12-01T04:51:24.690Z,0.00
2017-12-01T04:52:24.708Z,0.00
2017-12-01T04:53:24.732Z,0.00
2017-12-01T04:54:24.732Z,0.00
2017-12-01T04:55:24.743Z,0.00
2017-12-01T04:56:24.762Z,0.00
2017-12-01T04:57:24.774Z,0.00
2017-12-01T04:58:24.785Z,0.00
2017-12-01T04:59:24.838Z,0.00
2017-12-01T05:00:24.813Z,0.00
2017-12-01T05:01:24.826Z,0.00
2017-12-01T05:02:24.838Z,0.00
2017-12-01T05:03:24.853Z,0.00
2017-12-01T05:04:24.861Z,0.00
2017-12-01T05:05:24.890Z,0.00
2017-12-01T05:06:24.886Z,0.00
2017-12-01T05:07:24.901Z,0.00
2017-12-01T05:08:24.913Z,0.00
2017-12-01T05:09:24.937Z,0.00
2017-12-01T05:10:24.991Z,0.00
2017-12-01T05:11:24.955Z,0.00
2017-12-01T05:12:24.970Z,0.00
2017-12-01T05:13:24.982Z,0.00
2017-12-01T05:14:24.996Z,0.00
2017-12-01T05:15:25.004Z,0.00
2017-12-01T05:16:25.016Z,0.00
2017-12-01T05:17:25.029Z,0.00
2017-12-01T05:18:25.045Z,0.00
2017-12-01T05:19:25.059Z,0.00
2017-12-01T05:20:25.071Z,0.00
2017-12-01T05:21:25.085Z,0.00
2017-12-01T05:22:25.097Z,0.00
2017-12-01T05:23:25.116Z,0.00
2017-12-01T05:24:25.121Z,0.00
2017-12-01T05:25:25.133Z,0.00
2017-12-01T05:26:25.152Z,0.00
2017-12-01T05:27:25.175Z,0.00
2017-12-01T05:28:25.174Z,0.00
2017-12-01T05:29:25.188Z,0.00
2017-12-01T05:30:25.199Z,0.00
2017-12-01T05:31:25.214Z,0.00
2017-12-01T05:32:25.228Z,0.00
2017-12-01T05:33:25.239Z,0.00
2017-12-01T05:34:25.250Z,0.00
2017-12-01T05:35:25.262Z,0.00
2017-12-01T05:36:25.277Z,0.00
2017-12-01T05:37:25.290Z,0.00
2017-12-01T05:38:25.313Z,0.00
2017-12-01T05:39:25.314Z,0.00
2017-12-01T05:40:25.327Z,0.00
2017-12-01T05:41:25.340Z,0.00
2017-12-01T05:42:25.353Z,0.00
2017-12-01T05:43:25.374Z,0.00
2017-12-01T05:44:25.379Z,0.00
2017-12-01T05:45:25.389Z,0.00
2017-12-01T05:46:25.412Z,0.00
2017-12-01T05:47:25.431Z,0.00
2017-12-01T05:48:25.430Z,0.00
2017-12-01T05:49:25.445Z,0.00
2017-12-01T05:50:25.500Z,0.00
2017-12-01T05:51:25.471Z,0.00
2017-12-01T05:52:25.480Z,0.00
2017-12-01T05:53:25.493Z,0.00
2017-12-01T05:54:25.507Z,0.00
2017-12-01T05:55:25.518Z,0.00
2017-12-01T05:56:25.532Z,0.00
2017-12-01T05:57:25.546Z,0.00
2017-12-01T05:58:25.556Z,0.00
2017-12-01T05:59:25.570Z,0.00
2017-12-01T06:00:25.583Z,0.00
2017-12-01T06:01:25.598Z,0.00
2017-12-01T06:02:25.616Z,0.00
2017-12-01T06:03:25.625Z,0.00
2017-12-01T06:04:25.636Z,0.00
2017-12-01T06:05:25.651Z,0.00
2017-12-01T06:06:25.665Z,0.00
2017-12-01T06:07:25.681Z,0.00
2017-12-01T06:08:25.684Z,0.00
2017-12-01T06:09:25.698Z,0.00
2017-12-01T06:10:25.712Z,0.00
2017-12-01T06:11:25.723Z,0.00
2017-12-01T06:12:25.737Z,0.00
2017-12-01T06:13:25.748Z,0.00
2017-12-01T06:14:25.766Z,0.00
2017-12-01T06:15:25.777Z,0.00
2017-12-01T06:16:25.789Z,0.00
2017-12-01T06:17:25.804Z,0.00
2017-12-01T06:18:25.814Z,0.00
2017-12-01T06:19:25.829Z,0.00
2017-12-01T06:20:25.838Z,0.00
2017-12-01T06:21:25.851Z,0.00
2017-12-01T06:22:25.865Z,0.00
2017-12-01T06:23:25.880Z,0.00
2017-12-01T06:24:25.894Z,0.00
2017-12-01T06:25:25.904Z,0.00
2017-12-01T06:26:25.918Z,4.00
2017-12-01T06:27:25.934Z,4.00
2017-12-01T06:28:25.943Z,4.00
2017-12-01T06:29:26.009Z,4.00
2017-12-01T06:30:25.969Z,4.00
2017-12-01T06:31:25.981Z,0.00
2017-12-01T06:32:25.998Z,0.00
2017-12-01T06:33:26.007Z,4.00
2017-12-01T06:34:26.025Z,4.00
2017-12-01T06:35:26.034Z,4.00
2017-12-01T06:36:26.046Z,4.00
2017-12-01T06:37:26.060Z,4.00
2017-12-01T06:38:26.069Z,8.00
2017-12-01T06:39:26.084Z,4.00
2017-12-01T06:40:26.107Z,4.00
2017-12-01T06:41:26.116Z,8.00
2017-12-01T06:42:26.123Z,8.00
2017-12-01T06:43:26.137Z,8.00
2017-12-01T06:44:26.150Z,12.00
2017-12-01T06:45:26.165Z,12.00
2017-12-01T06:46:26.176Z,12.00
2017-12-01T06:47:26.184Z,16.00
2017-12-01T06:48:26.199Z,20.00
2017-12-01T06:49:26.213Z,20.00
2017-12-01T06:50:26.225Z,24.00
2017-12-01T06:51:26.236Z,28.00
2017-12-01T06:52:26.250Z,32.00
2017-12-01T06:53:26.265Z,36.00
2017-12-01T06:54:26.276Z,40.00
2017-12-01T06:55:26.288Z,48.00
2017-12-01T06:56:26.302Z,52.00
2017-12-01T06:57:26.318Z,60.00
2017-12-01T06:58:26.330Z,64.00
2017-12-01T06:59:26.340Z,68.00
2017-12-01T07:00:26.361Z,76.00
2017-12-01T07:01:26.366Z,84.00
2017-12-01T07:02:26.382Z,92.00
2017-12-01T07:03:26.394Z,96.00
2017-12-01T07:04:26.407Z,104.00
2017-12-01T07:05:26.419Z,112.00
2017-12-01T07:06:26.431Z,124.00
2017-12-01T07:07:26.449Z,132.00
2017-12-01T07:08:26.458Z,148.00
2017-12-01T07:09:26.489Z,160.00
2017-12-01T07:10:26.485Z,164.00
2017-12-01T07:11:26.506Z,172.00
2017-12-01T07:12:26.511Z,184.00
2017-12-01T07:13:26.522Z,200.00
2017-12-01T07:14:26.534Z,212.00
2017-12-01T07:15:26.545Z,224.00
2017-12-01T07:16:26.558Z,236.00
2017-12-01T07:17:26.574Z,252.00
2017-12-01T07:18:26.590Z,268.00
2017-12-01T07:19:26.601Z,296.00
2017-12-01T07:20:26.612Z,304.00
2017-12-01T07:21:26.625Z,312.00
2017-12-01T07:22:26.701Z,324.00
2017-12-01T07:23:26.650Z,340.00
2017-12-01T07:24:26.663Z,356.00
2017-12-01T07:25:26.685Z,368.00
2017-12-01T07:26:27.726Z,372.00
2017-12-01T07:27:26.702Z,376.00
2017-12-01T07:28:26.717Z,384.00
2017-12-01T07:29:26.729Z,400.00
2017-12-01T07:30:26.742Z,416.00
2017-12-01T07:31:26.753Z,424.00
2017-12-01T07:32:26.770Z,432.00
2017-12-01T07:33:26.781Z,444.00
2017-12-01T07:34:26.796Z,456.00
2017-12-01T07:35:26.813Z,468.00
2017-12-01T07:36:26.820Z,476.00
2017-12-01T07:37:26.843Z,500.00
2017-12-01T07:38:26.849Z,528.00
2017-12-01T07:39:26.860Z,548.00
2017-12-01T07:40:26.872Z,548.00
2017-12-01T07:41:26.887Z,568.00
2017-12-01T07:42:26.902Z,588.00
2017-12-01T07:43:27.669Z,592.00
2017-12-01T07:44:26.924Z,596.00
2017-12-01T07:45:26.938Z,620.00
2017-12-01T07:46:26.956Z,636.00
2017-12-01T07:47:26.968Z,668.00
2017-12-01T07:48:26.977Z,708.00
2017-12-01T07:49:26.993Z,736.00
2017-12-01T07:50:27.006Z,780.00
2017-12-01T07:51:27.016Z,824.00
2017-12-01T07:52:27.032Z,864.00
2017-12-01T07:53:27.046Z,900.00
2017-12-01T07:54:27.060Z,932.00
2017-12-01T07:55:27.070Z,960.00
2017-12-01T07:56:27.086Z,1000.00
2017-12-01T07:57:27.099Z,1052.00
2017-12-01T07:58:27.113Z,1100.00
2017-12-01T07:59:27.123Z,1140.00
2017-12-01T08:00:27.138Z,1160.00
2017-12-01T08:01:27.150Z,1184.00
2017-12-01T08:02:27.165Z,1220.00
2017-12-01T08:03:27.176Z,1256.00
2017-12-01T08:04:27.192Z,1300.00
2017-12-01T08:05:27.203Z,1296.00
2017-12-01T08:06:27.217Z,1284.00
2017-12-01T08:07:27.229Z,1276.00
2017-12-01T08:08:27.251Z,1280.00
2017-12-01T08:09:27.255Z,1272.00
2017-12-01T08:10:27.272Z,1260.00
2017-12-01T08:11:27.289Z,1252.00
2017-12-01T08:12:27.301Z,1272.00
2017-12-01T08:13:27.320Z,1312.00
2017-12-01T08:14:27.325Z,1340.00
2017-12-01T08:15:27.345Z,1356.00
2017-12-01T08:16:27.350Z,1384.00
2017-12-01T08:17:27.363Z,1420.00
2017-12-01T08:18:27.382Z,1452.00
2017-12-01T08:19:27.397Z,1480.00
2017-12-01T08:20:27.411Z,1520.00
2017-12-01T08:21:27.419Z,1552.00
2017-12-01T08:22:27.431Z,1600.00
2017-12-01T08:23:27.443Z,1652.00
2017-12-01T08:24:27.457Z,1708.00
2017-12-01T08:25:27.473Z,1788.00
2017-12-01T08:26:27.528Z,1876.00
2017-12-01T08:27:27.510Z,1988.00
2017-12-01T08:28:27.513Z,2100.00
2017-12-01T08:29:27.525Z,2172.00
2017-12-01T08:30:27.571Z,2216.00
2017-12-01T08:31:27.555Z,2252.00
2017-12-01T08:32:27.565Z,2316.00
2017-12-01T08:33:27.583Z,2432.00
2017-12-01T08:34:27.593Z,2612.00
2017-12-01T08:35:27.606Z,2772.00
2017-12-01T08:36:27.619Z,2900.00
2017-12-01T08:37:27.633Z,2984.00
2017-12-01T08:38:27.648Z,3012.00
2017-12-01T08:39:27.658Z,2964.00
2017-12-01T08:40:27.672Z,2912.00
2017-12-01T08:41:27.688Z,2800.00
2017-12-01T08:42:27.703Z,2652.00
2017-12-01T08:43:27.719Z,2608.00
2017-12-01T08:44:27.728Z,2624.00
2017-12-01T08:45:27.742Z,2728.00
2017-12-01T08:46:27.759Z,2908.00
2017-12-01T08:47:27.767Z,3004.00
2017-12-01T08:48:27.788Z,3076.00
2017-12-01T08:49:27.799Z,3220.00
2017-12-01T08:50:27.813Z,3468.00
2017-12-01T08:51:27.822Z,3840.00
2017-12-01T08:52:27.835Z,4284.00
2017-12-01T08:53:27.851Z,4692.00
2017-12-01T08:54:27.868Z,5008.00
2017-12-01T08:55:27.879Z,5292.00
2017-12-01T08:56:27.924Z,5640.00
2017-12-01T08:57:27.907Z,5948.00
2017-12-01T08:58:27.921Z,6124.00
2017-12-01T08:59:27.935Z,6320.00
2017-12-01T09:00:27.946Z,6604.00
2017-12-01T09:01:27.970Z,6864.00
2017-12-01T09:02:28.051Z,7032.00
2017-12-01T09:03:27.993Z,7052.00
2017-12-01T09:04:28.001Z,7032.00
2017-12-01T09:05:28.017Z,6912.00
2017-12-01T09:06:28.029Z,6860.00
2017-12-01T09:07:28.044Z,6912.00
2017-12-01T09:08:28.063Z,7112.00
2017-12-01T09:09:28.072Z,7284.00
2017-12-01T09:10:28.088Z,7468.00
2017-12-01T09:11:28.103Z,7584.00
2017-12-01T09:12:28.117Z,7652.00
2017-12-01T09:13:28.160Z,7764.00
2017-12-01T09:14:28.146Z,7828.00
2017-12-01T09:15:28.163Z,7916.00
2017-12-01T09:16:28.179Z,7988.00
2017-12-01T09:17:28.187Z,8044.00
2017-12-01T09:18:28.205Z,8092.00
2017-12-01T09:19:28.215Z,8068.00
2017-12-01T09:20:28.229Z,7892.00
2017-12-01T09:21:28.244Z,7636.00
2017-12-01T09:22:28.260Z,7480.00
2017-12-01T09:23:28.281Z,7400.00
2017-12-01T09:24:28.288Z,7492.00
2017-12-01T09:25:28.481Z,7632.00
2017-12-01T09:26:28.326Z,7868.00
2017-12-01T09:27:28.334Z,8132.00
2017-12-01T09:28:28.346Z,8276.00
2017-12-01T09:29:28.361Z,8408.00
2017-12-01T09:30:28.375Z,8480.00
2017-12-01T09:31:28.390Z,8608.00
2017-12-01T09:32:28.412Z,8796.00
2017-12-01T09:33:28.436Z,9012.00
2017-12-01T09:34:28.487Z,9224.00
2017-12-01T09:35:28.448Z,9444.00
2017-12-01T09:36:28.463Z,9604.00
2017-12-01T09:37:28.482Z,9624.00
2017-12-01T09:38:28.501Z,9548.00
2017-12-01T09:39:28.512Z,9432.00
2017-12-01T09:40:28.525Z,9300.00
2017-12-01T09:41:28.544Z,9152.00
2017-12-01T09:42:28.551Z,9040.00
2017-12-01T09:43:28.566Z,9044.00
2017-12-01T09:44:28.585Z,9012.00
2017-12-01T09:45:28.600Z,8940.00
2017-12-01T09:46:28.612Z,8868.00
2017-12-01T09:47:28.627Z,8756.00
2017-12-01T09:48:28.641Z,8672.00
2017-12-01T09:49:28.655Z,8460.00
2017-12-01T09:50:28.672Z,8176.00
2017-12-01T09:51:28.689Z,7868.00
2017-12-01T09:52:28.704Z,7540.00
2017-12-01T09:53:28.717Z,7180.00
2017-12-01T09:54:28.733Z,6696.00
2017-12-01T09:55:28.752Z,6344.00
2017-12-01T09:56:28.767Z,6212.00
2017-12-01T09:57:28.776Z,6312.00
2017-12-01T09:58:28.795Z,6364.00
2017-12-01T09:59:28.807Z,6456.00
2017-12-01T10:00:28.821Z,6776.00
2017-12-01T10:01:28.840Z,7196.00
2017-12-01T10:02:28.863Z,7436.00
2017-12-01T10:03:28.868Z,7440.00
2017-12-01T10:04:28.887Z,7256.00
2017-12-01T10:05:28.899Z,6876.00
2017-12-01T10:06:28.920Z,6476.00
2017-12-01T10:07:28.928Z,6084.00
2017-12-01T10:08:28.944Z,5632.00
2017-12-01T10:09:28.959Z,5200.00
2017-12-01T10:10:28.974Z,4980.00
2017-12-01T10:11:28.990Z,4940.00
2017-12-01T10:12:29.005Z,5100.00
2017-12-01T10:13:29.020Z,5344.00
2017-12-01T10:14:29.035Z,5808.00
2017-12-01T10:15:29.055Z,6368.00
2017-12-01T10:16:29.068Z,6708.00
2017-12-01T10:17:29.081Z,7068.00
2017-12-01T10:18:29.094Z,7576.00
2017-12-01T10:19:29.106Z,7808.00
2017-12-01T10:20:29.123Z,7748.00
2017-12-01T10:21:29.145Z,7728.00
2017-12-01T10:22:29.158Z,7832.00
2017-12-01T10:23:29.168Z,7864.00
2017-12-01T10:24:29.183Z,7936.00
2017-12-01T10:25:29.195Z,7992.00
2017-12-01T10:26:29.212Z,7892.00
2017-12-01T10:27:29.227Z,7692.00
2017-12-01T10:28:29.255Z,7580.00
2017-12-01T10:29:29.306Z,7648.00
2017-12-01T10:30:29.272Z,7824.00
2017-12-01T10:31:29.290Z,7880.00
2017-12-01T10:32:29.302Z,7848.00
2017-12-01T10:33:29.320Z,7988.00
2017-12-01T10:34:29.331Z,8044.00
2017-12-01T10:35:29.347Z,8008.00
2017-12-01T10:36:29.362Z,8020.00
2017-12-01T10:37:29.375Z,8196.00
2017-12-01T10:38:29.393Z,8260.00
2017-12-01T10:39:29.407Z,8356.00
2017-12-01T10:40:29.422Z,8288.00
2017-12-01T10:41:29.435Z,8220.00
2017-12-01T10:42:29.451Z,8148.00
2017-12-01T10:43:29.471Z,8152.00
2017-12-01T10:44:29.483Z,8008.00
2017-12-01T10:45:30.199Z,7724.00
2017-12-01T10:46:29.528Z,7516.00
2017-12-01T10:47:29.526Z,7452.00
2017-12-01T10:48:29.543Z,7256.00
2017-12-01T10:49:29.556Z,7016.00
2017-12-01T10:50:29.575Z,6544.00
2017-12-01T10:51:29.589Z,6068.00
2017-12-01T10:52:29.603Z,5808.00
2017-12-01T10:53:29.618Z,5516.00
2017-12-01T10:54:29.634Z,5284.00
2017-12-01T10:55:29.647Z,5176.00
2017-12-01T10:56:29.678Z,5104.00
2017-12-01T10:57:29.686Z,5004.00
2017-12-01T10:58:29.695Z,4952.00
2017-12-01T10:59:29.707Z,4824.00
2017-12-01T11:00:29.721Z,4688.00
2017-12-01T11:01:29.742Z,4632.00
2017-12-01T11:02:29.752Z,4584.00
2017-12-01T11:03:29.771Z,4640.00
2017-12-01T11:04:29.785Z,4744.00
2017-12-01T11:05:29.799Z,4760.00
2017-12-01T11:06:29.813Z,4536.00
2017-12-01T11:07:29.828Z,4348.00
2017-12-01T11:08:29.844Z,4200.00
2017-12-01T11:09:29.855Z,4068.00
2017-12-01T11:10:29.870Z,3968.00
2017-12-01T11:11:29.886Z,3956.00
2017-12-01T11:12:29.900Z,3972.00
2017-12-01T11:13:29.917Z,4064.00
2017-12-01T11:14:29.931Z,4216.00
2017-12-01T11:15:29.951Z,4256.00
2017-12-01T11:16:29.959Z,4220.00
2017-12-01T11:17:29.975Z,4192.00
2017-12-01T11:18:29.993Z,4228.00
2017-12-01T11:19:30.003Z,4288.00
2017-12-01T11:20:30.017Z,4296.00
2017-12-01T11:21:30.034Z,4264.00
2017-12-01T11:22:30.047Z,4232.00
2017-12-01T11:23:30.060Z,4244.00
2017-12-01T11:24:30.093Z,4300.00
2017-12-01T11:25:30.091Z,4220.00
2017-12-01T11:26:30.106Z,3952.00
2017-12-01T11:27:30.121Z,3636.00
2017-12-01T11:28:30.133Z,3472.00
2017-12-01T11:29:30.148Z,3536.00
2017-12-01T11:30:30.168Z,3632.00
2017-12-01T11:31:30.175Z,3640.00
2017-12-01T11:32:30.194Z,3664.00
2017-12-01T11:33:30.205Z,3756.00
2017-12-01T11:34:30.221Z,3944.00
2017-12-01T11:35:30.234Z,4192.00
2017-12-01T11:36:30.246Z,4428.00
2017-12-01T11:37:30.262Z,4508.00
2017-12-01T11:38:30.276Z,4436.00
2017-12-01T11:39:30.303Z,4252.00
2017-12-01T11:40:30.306Z,4068.00
2017-12-01T11:41:30.319Z,3988.00
2017-12-01T11:42:30.334Z,4064.00
2017-12-01T11:43:30.347Z,4364.00
2017-12-01T11:44:30.363Z,4748.00
2017-12-01T11:45:30.378Z,4980.00
2017-12-01T11:46:30.393Z,5040.00
2017-12-01T11:47:30.405Z,4952.00
2017-12-01T11:48:30.423Z,4788.00
2017-12-01T11:49:30.433Z,4728.00
2017-12-01T11:50:30.448Z,4680.00
2017-12-01T11:51:30.464Z,4564.00
2017-12-01T11:52:30.480Z,4376.00
2017-12-01T11:53:30.492Z,4200.00
2017-12-01T11:54:30.509Z,4216.00
2017-12-01T11:55:30.518Z,4360.00
2017-12-01T11:56:30.597Z,4440.00
2017-12-01T11:57:30.550Z,4472.00
2017-12-01T11:58:30.565Z,4536.00
2017-12-01T11:59:30.576Z,4648.00
2017-12-01T12:00:30.592Z,4764.00
2017-12-01T12:01:30.607Z,4856.00
2017-12-01T12:02:30.626Z,4924.00
2017-12-01T12:03:30.773Z,5052.00
2017-12-01T12:04:30.650Z,5208.00
2017-12-01T12:05:30.664Z,5300.00
2017-12-01T12:06:30.681Z,5360.00
2017-12-01T12:07:30.692Z,5408.00
2017-12-01T12:08:30.759Z,5436.00
2017-12-01T12:09:30.721Z,5432.00
2017-12-01T12:10:30.734Z,5436.00
2017-12-01T12:11:30.752Z,5404.00
2017-12-01T12:12:30.764Z,5400.00
2017-12-01T12:13:30.778Z,5416.00
2017-12-01T12:14:30.792Z,5460.00
2017-12-01T12:15:30.806Z,5496.00
2017-12-01T12:16:30.823Z,5580.00
2017-12-01T12:17:30.844Z,5660.00
2017-12-01T12:18:30.850Z,5628.00
2017-12-01T12:19:30.863Z,5568.00
2017-12-01T12:20:30.877Z,5432.00
2017-12-01T12:21:30.897Z,5304.00
2017-12-01T12:22:30.922Z,5192.00
2017-12-01T12:23:30.925Z,5180.00
2017-12-01T12:24:30.940Z,5240.00
2017-12-01T12:25:30.954Z,5364.00
2017-12-01T12:26:30.971Z,5544.00
2017-12-01T12:27:31.006Z,5828.00
2017-12-01T12:28:30.999Z,6156.00
2017-12-01T12:29:31.011Z,6340.00
2017-12-01T12:30:31.028Z,6352.00
2017-12-01T12:31:31.046Z,6148.00
2017-12-01T12:32:31.054Z,5884.00
2017-12-01T12:33:31.071Z,5624.00
2017-12-01T12:34:31.084Z,5356.00
2017-12-01T12:35:31.098Z,5080.00
2017-12-01T12:36:31.126Z,4788.00
2017-12-01T12:37:31.139Z,4552.00
2017-12-01T12:38:31.147Z,4332.00
2017-12-01T12:39:31.157Z,4120.00
2017-12-01T12:40:31.172Z,3984.00
2017-12-01T12:41:31.188Z,3908.00
2017-12-01T12:42:31.212Z,3888.00
2017-12-01T12:43:31.221Z,3864.00
2017-12-01T12:44:31.235Z,3896.00
2017-12-01T12:45:31.247Z,3944.00